createdAt,value
2022-08-21T00:02:16.801Z,19.90
2022-08-21T00:04:54.470Z,20.00
2022-08-21T00:07:25.700Z,20.00
2022-08-21T00:09:53.801Z,19.90
2022-08-21T00:12:21.889Z,19.90
2022-08-21T00:14:49.428Z,19.90
2022-08-21T00:17:17.250Z,19.90
2022-08-21T00:19:44.682Z,19.90
2022-08-21T00:22:12.161Z,19.80
2022-08-21T00:24:39.408Z,19.80
2022-08-21T00:27:14.702Z,19.80
2022-08-21T00:29:41.964Z,19.70
2022-08-21T00:32:10.234Z,19.70
2022-08-21T00:34:37.556Z,19.70
2022-08-21T00:37:05.527Z,19.70
2022-08-21T00:39:34.347Z,19.70
2022-08-21T00:42:01.641Z,19.70
2022-08-21T00:44:30.347Z,19.60
2022-08-21T00:46:59.297Z,19.70
2022-08-21T00:49:28.170Z,19.60
2022-08-21T00:52:01.420Z,19.60
2022-08-21T00:54:31.991Z,19.50
2022-08-21T00:57:03.430Z,19.50
2022-08-21T00:59:35.805Z,19.50
2022-08-21T01:02:05.596Z,19.50
2022-08-21T01:04:33.065Z,19.50
2022-08-21T01:07:00.440Z,19.50
2022-08-21T01:09:27.918Z,19.50
2022-08-21T01:11:55.587Z,19.50
2022-08-21T01:14:23.861Z,19.50
2022-08-21T01:16:53.718Z,19.50
2022-08-21T01:19:22.033Z,19.50
2022-08-21T01:21:50.039Z,19.60
2022-08-21T01:24:17.379Z,19.50
2022-08-21T01:26:45.209Z,19.50
2022-08-21T01:29:27.562Z,19.50
2022-08-21T01:31:55.673Z,19.50
2022-08-21T01:34:24.361Z,19.50
2022-08-21T01:36:52.181Z,19.60
2022-08-21T01:39:19.683Z,19.50
2022-08-21T01:41:47.002Z,19.50
2022-08-21T01:44:14.750Z,19.50
2022-08-21T01:46:42.116Z,19.50
2022-08-21T01:49:09.762Z,19.50
2022-08-21T01:51:38.395Z,19.50
2022-08-21T01:54:05.829Z,19.40
2022-08-21T01:56:41.310Z,19.50
2022-08-21T01:59:09.518Z,19.40
2022-08-21T02:01:37.873Z,19.40
2022-08-21T02:04:05.167Z,19.40
2022-08-21T02:06:32.794Z,19.40
2022-08-21T02:09:00.231Z,19.40
2022-08-21T02:11:27.911Z,19.30
2022-08-21T02:13:55.247Z,19.30
2022-08-21T02:16:23.478Z,19.30
2022-08-21T02:18:51.716Z,19.30
2022-08-21T02:21:20.658Z,19.30
2022-08-21T02:23:48.093Z,19.40
2022-08-21T02:26:15.687Z,19.30
2022-08-21T02:28:43.834Z,19.30
2022-08-21T02:31:11.417Z,19.30
2022-08-21T02:33:40.448Z,19.30
2022-08-21T02:36:08.947Z,19.30
2022-08-21T02:38:39.918Z,19.30
2022-08-21T02:41:10.250Z,19.20
2022-08-21T02:43:37.705Z,19.30
2022-08-21T02:46:06.838Z,19.30
2022-08-21T02:48:35.463Z,19.30
2022-08-21T02:51:06.220Z,19.30
2022-08-21T02:53:34.143Z,19.30
2022-08-21T02:56:05.236Z,19.30
2022-08-21T02:58:38.322Z,19.30
2022-08-21T03:01:09.020Z,19.30
2022-08-21T03:03:40.312Z,19.30
2022-08-21T03:06:09.240Z,19.30
2022-08-21T03:08:38.919Z,19.30
2022-08-21T03:11:06.880Z,19.40
2022-08-21T03:13:36.429Z,19.30
2022-08-21T03:16:05.370Z,19.30
2022-08-21T03:18:37.921Z,19.30
2022-08-21T03:21:06.062Z,19.40
2022-08-21T03:23:33.597Z,19.30
2022-08-21T03:26:01.875Z,19.30
2022-08-21T03:28:29.739Z,19.30
2022-08-21T03:30:57.399Z,19.30
2022-08-21T03:33:25.328Z,19.30
2022-08-21T03:36:02.849Z,19.30
2022-08-21T03:38:32.329Z,19.30
2022-08-21T03:41:01.464Z,19.40
2022-08-21T03:43:31.147Z,19.30
2022-08-21T03:46:03.433Z,19.30
2022-08-21T03:48:33.396Z,19.30
2022-08-21T03:51:01.456Z,19.30
2022-08-21T03:53:28.881Z,19.30
2022-08-21T03:55:57.976Z,19.30
2022-08-21T03:58:28.929Z,19.30
2022-08-21T04:00:58.543Z,19.30
2022-08-21T04:03:27.110Z,19.30
2022-08-21T04:05:54.320Z,19.30
2022-08-21T04:08:21.598Z,19.30
2022-08-21T04:10:51.736Z,19.30
2022-08-21T04:13:19.333Z,19.30
2022-08-21T04:15:47.527Z,19.30
2022-08-21T04:18:16.692Z,19.30
2022-08-21T04:20:50.308Z,19.20
2022-08-21T04:23:23.853Z,19.20
2022-08-21T04:25:53.712Z,19.20
2022-08-21T04:28:30.474Z,19.20
2022-08-21T04:30:59.077Z,19.20
2022-08-21T04:33:26.420Z,19.10
2022-08-21T04:35:53.985Z,19.20
2022-08-21T04:38:21.807Z,19.20
2022-08-21T04:40:51.110Z,19.20
2022-08-21T04:43:19.322Z,19.20
2022-08-21T04:45:48.944Z,19.30
2022-08-21T04:48:18.961Z,19.40
2022-08-21T04:51:09.366Z,19.30
2022-08-21T04:53:44.097Z,19.40
2022-08-21T04:56:16.716Z,19.40
2022-08-21T04:58:44.449Z,19.40
2022-08-21T05:01:22.514Z,19.40
2022-08-21T05:03:53.637Z,19.40
2022-08-21T05:06:21.039Z,19.40
2022-08-21T05:08:52.232Z,19.40
2022-08-21T05:11:31.516Z,19.40
2022-08-21T05:13:59.353Z,19.40
2022-08-21T05:16:36.770Z,19.40
2022-08-21T05:19:07.158Z,19.40
2022-08-21T05:21:36.265Z,19.50
2022-08-21T05:24:04.936Z,19.60
2022-08-21T05:26:32.703Z,19.60
2022-08-21T05:29:00.133Z,19.70
2022-08-21T05:31:36.998Z,19.80
2022-08-21T05:34:08.248Z,19.80
2022-08-21T05:36:35.815Z,19.90
2022-08-21T05:39:04.187Z,19.90
2022-08-21T05:41:31.559Z,20.00
2022-08-21T05:44:02.548Z,20.00
2022-08-21T05:46:29.808Z,20.00
2022-08-21T05:48:57.103Z,20.00
2022-08-21T05:51:24.549Z,20.00
2022-08-21T05:53:51.762Z,20.10
2022-08-21T05:56:19.178Z,20.10
2022-08-21T05:58:46.413Z,20.20
2022-08-21T06:01:13.766Z,20.30
2022-08-21T06:03:43.073Z,20.40
2022-08-21T06:06:13.695Z,20.40
2022-08-21T06:08:43.053Z,20.50
2022-08-21T06:11:10.822Z,20.60
2022-08-21T06:13:39.972Z,20.60
2022-08-21T06:16:16.559Z,20.60
2022-08-21T06:18:46.199Z,20.70
2022-08-21T06:21:14.724Z,20.80
2022-08-21T06:23:43.638Z,20.90
2022-08-21T06:26:13.427Z,20.90
2022-08-21T06:28:42.015Z,20.90
2022-08-21T06:31:19.051Z,21.00
2022-08-21T06:33:46.630Z,21.20
2022-08-21T06:36:15.821Z,21.20
2022-08-21T06:38:43.822Z,21.20
2022-08-21T06:41:19.510Z,21.30
2022-08-21T06:43:51.754Z,21.50
2022-08-21T06:46:18.958Z,21.60
2022-08-21T06:48:46.149Z,21.80
2022-08-21T06:51:13.870Z,21.90
2022-08-21T06:53:41.123Z,22.00
2022-08-21T06:56:09.102Z,22.30
2022-08-21T06:58:36.548Z,22.40
2022-08-21T07:01:04.895Z,22.60
2022-08-21T07:03:35.418Z,22.70
2022-08-21T07:06:05.419Z,22.90
2022-08-21T07:08:32.833Z,22.90
2022-08-21T07:11:02.638Z,22.80
2022-08-21T07:13:30.401Z,22.80
2022-08-21T07:16:03.151Z,22.90
2022-08-21T07:18:33.642Z,23.10
2022-08-21T07:21:04.718Z,23.40
2022-08-21T07:23:35.912Z,23.50
2022-08-21T07:26:04.425Z,23.60
2022-08-21T07:28:31.650Z,23.80
2022-08-21T07:31:01.385Z,23.70
2022-08-21T07:33:31.122Z,23.80
2022-08-21T07:35:59.094Z,24.00
2022-08-21T07:38:26.747Z,24.00
2022-08-21T07:40:57.000Z,24.00
2022-08-21T07:43:24.162Z,24.10
2022-08-21T07:45:51.466Z,24.10
2022-08-21T07:48:18.732Z,24.20
2022-08-21T07:50:46.047Z,24.20
2022-08-21T07:53:13.349Z,24.20
2022-08-21T07:55:40.387Z,24.20
2022-08-21T07:58:07.830Z,24.40
2022-08-21T08:00:35.711Z,24.50
2022-08-21T08:03:05.678Z,24.40
2022-08-21T08:05:34.521Z,24.40
2022-08-21T08:08:03.199Z,24.30
2022-08-21T08:10:30.546Z,24.40
2022-08-21T08:12:57.961Z,24.40
2022-08-21T08:15:28.005Z,24.40
2022-08-21T08:17:56.417Z,24.50
2022-08-21T08:20:26.164Z,24.50
2022-08-21T08:22:55.346Z,24.40
2022-08-21T08:25:36.172Z,24.20
2022-08-21T08:28:16.207Z,24.10
2022-08-21T08:30:47.178Z,24.10
2022-08-21T08:33:16.237Z,24.30
2022-08-21T08:35:48.967Z,24.40
2022-08-21T08:38:24.611Z,24.30
2022-08-21T08:41:12.427Z,24.20
2022-08-21T08:43:41.351Z,24.30
2022-08-21T08:46:16.579Z,24.30
2022-08-21T08:49:10.943Z,24.20
2022-08-21T08:51:48.530Z,24.10
2022-08-21T08:54:41.994Z,24.00
2022-08-21T08:57:15.197Z,24.00
2022-08-21T08:59:56.195Z,24.10
2022-08-21T09:02:28.707Z,24.00
2022-08-21T09:04:56.586Z,23.90
2022-08-21T09:07:58.986Z,23.90
2022-08-21T09:11:03.967Z,23.80
2022-08-21T09:13:48.517Z,23.70
2022-08-21T09:16:28.122Z,23.60
2022-08-21T09:18:58.276Z,23.60
2022-08-21T09:21:34.905Z,23.60
2022-08-21T09:24:31.675Z,23.70
2022-08-21T09:27:10.827Z,23.60
2022-08-21T09:29:42.509Z,23.60
2022-08-21T09:32:18.984Z,23.60
2022-08-21T09:35:15.189Z,23.50
2022-08-21T09:38:04.037Z,23.50
2022-08-21T09:40:45.433Z,23.40
2022-08-21T09:43:12.517Z,23.30
2022-08-21T09:45:43.011Z,23.30
2022-08-21T09:48:22.039Z,23.10
2022-08-21T09:50:57.378Z,22.90
2022-08-21T09:53:33.672Z,22.80
2022-08-21T09:56:45.784Z,22.90
2022-08-21T09:59:40.734Z,22.90
2022-08-21T10:02:27.372Z,22.90
2022-08-21T10:04:58.523Z,22.90
2022-08-21T10:07:28.613Z,23.00
2022-08-21T10:10:08.869Z,23.10
2022-08-21T10:13:03.297Z,23.30
2022-08-21T10:16:05.252Z,23.30
2022-08-21T10:18:51.353Z,23.40
2022-08-21T10:21:32.372Z,23.40
2022-08-21T10:24:31.744Z,23.40
2022-08-21T10:27:26.843Z,23.40
2022-08-21T10:30:02.943Z,23.50
2022-08-21T10:32:58.285Z,23.50
2022-08-21T10:35:33.237Z,23.60
2022-08-21T10:38:46.250Z,23.60
2022-08-21T10:41:42.356Z,23.60
2022-08-21T10:44:25.206Z,23.60
2022-08-21T10:47:07.534Z,23.70
2022-08-21T10:50:02.512Z,23.60
2022-08-21T10:52:38.775Z,23.70
2022-08-21T10:55:22.528Z,23.70
2022-08-21T10:57:59.824Z,23.70
2022-08-21T11:00:44.826Z,23.50
2022-08-21T11:03:17.378Z,23.50
2022-08-21T11:06:11.102Z,23.40
2022-08-21T11:08:47.766Z,23.40
2022-08-21T11:11:36.539Z,23.60
2022-08-21T11:14:19.156Z,23.80
2022-08-21T11:17:12.208Z,24.00
2022-08-21T11:19:51.553Z,24.20
2022-08-21T11:22:22.382Z,24.40
2022-08-21T11:25:11.382Z,24.60
2022-08-21T11:28:04.505Z,24.60
2022-08-21T11:31:00.875Z,24.60
2022-08-21T11:33:40.173Z,24.80
2022-08-21T11:36:22.782Z,24.70
2022-08-21T11:39:11.369Z,24.60
2022-08-21T11:42:09.294Z,24.70
2022-08-21T11:44:49.811Z,24.80
2022-08-21T11:47:32.370Z,24.60
2022-08-21T11:50:35.121Z,24.60
2022-08-21T11:53:13.646Z,24.60
2022-08-21T11:55:52.865Z,24.60
2022-08-21T11:58:43.214Z,24.70
2022-08-21T12:01:25.570Z,24.70
2022-08-21T12:04:17.967Z,24.60
2022-08-21T12:06:46.444Z,24.50
2022-08-21T12:09:44.488Z,24.60
2022-08-21T12:12:29.802Z,24.60
2022-08-21T12:15:18.793Z,24.70
2022-08-21T12:17:59.975Z,24.90
2022-08-21T12:20:50.564Z,24.90
2022-08-21T12:23:26.290Z,25.00
2022-08-21T12:26:29.736Z,25.10
2022-08-21T12:29:16.590Z,25.10
2022-08-21T12:31:58.563Z,25.20
2022-08-21T12:34:36.622Z,25.30
2022-08-21T12:37:12.753Z,25.40
2022-08-21T12:39:45.812Z,25.60
2022-08-21T12:42:19.851Z,25.50
2022-08-21T12:45:04.668Z,25.20
2022-08-21T12:47:46.291Z,25.10
2022-08-21T12:50:23.053Z,25.00
2022-08-21T12:53:02.668Z,25.10
2022-08-21T12:55:32.429Z,25.10
2022-08-21T12:58:00.952Z,25.30
2022-08-21T13:00:30.577Z,25.30
2022-08-21T13:02:58.723Z,25.40
2022-08-21T13:05:33.011Z,25.50
2022-08-21T13:08:05.443Z,25.60
2022-08-21T13:10:35.876Z,25.50
2022-08-21T13:13:12.990Z,25.60
2022-08-21T13:15:47.588Z,25.90
2022-08-21T13:18:23.912Z,26.20
2022-08-21T13:20:51.309Z,26.20
2022-08-21T13:23:30.322Z,26.10
2022-08-21T13:25:58.827Z,26.10
2022-08-21T13:28:36.011Z,26.00
2022-08-21T13:31:07.338Z,26.00
2022-08-21T13:33:37.503Z,25.80
2022-08-21T13:36:15.825Z,25.70
2022-08-21T13:38:45.287Z,25.50
2022-08-21T13:41:31.837Z,25.50
2022-08-21T13:44:36.897Z,25.40
2022-08-21T13:47:06.767Z,25.10
2022-08-21T13:49:42.128Z,25.10
2022-08-21T13:52:18.671Z,24.80
2022-08-21T13:55:14.896Z,24.60
2022-08-21T13:57:42.461Z,24.40
2022-08-21T14:00:26.284Z,24.20
2022-08-21T14:02:59.103Z,24.10
2022-08-21T14:05:29.392Z,24.00
2022-08-21T14:08:13.347Z,23.80
2022-08-21T14:10:56.004Z,23.70
2022-08-21T14:13:38.736Z,23.50
2022-08-21T14:16:28.775Z,23.40
2022-08-21T14:19:04.930Z,23.20
2022-08-21T14:21:47.158Z,23.10
2022-08-21T14:24:26.275Z,23.00
2022-08-21T14:27:08.352Z,22.80
2022-08-21T14:29:39.677Z,22.60
2022-08-21T14:32:24.505Z,22.60
2022-08-21T14:34:54.859Z,22.60
2022-08-21T14:37:23.651Z,22.60
2022-08-21T14:39:51.483Z,22.60
2022-08-21T14:42:19.169Z,22.60
2022-08-21T14:44:46.390Z,22.50
2022-08-21T14:47:14.300Z,22.40
2022-08-21T14:49:41.583Z,22.40
2022-08-21T14:52:09.760Z,22.50
2022-08-21T14:54:37.224Z,22.50
2022-08-21T14:57:10.844Z,22.60
2022-08-21T14:59:38.674Z,22.70
2022-08-21T15:02:07.183Z,22.70
2022-08-21T15:04:35.423Z,22.60
2022-08-21T15:07:02.784Z,22.50
2022-08-21T15:09:30.163Z,22.60
2022-08-21T15:11:59.595Z,22.70
2022-08-21T15:15:53.911Z,22.60
2022-08-21T15:18:23.473Z,22.80
2022-08-21T15:20:51.719Z,22.90
2022-08-21T15:23:20.188Z,23.00
2022-08-21T15:25:50.160Z,23.20
2022-08-21T15:28:21.412Z,23.20
2022-08-21T15:30:49.919Z,23.20
2022-08-21T15:33:18.514Z,23.10
2022-08-21T15:35:48.097Z,23.20
2022-08-21T15:38:16.453Z,23.30
2022-08-21T15:40:51.591Z,23.40
2022-08-21T15:43:55.848Z,23.40
2022-08-21T15:46:23.262Z,23.70
2022-08-21T15:48:50.895Z,23.80
2022-08-21T15:51:19.957Z,23.80
2022-08-21T15:53:47.779Z,23.80
2022-08-21T15:56:34.432Z,23.70
2022-08-21T15:59:17.145Z,23.80
2022-08-21T16:01:46.201Z,23.60
2022-08-21T16:04:26.938Z,23.40
2022-08-21T16:07:01.742Z,23.30
2022-08-21T16:09:32.657Z,23.20
2022-08-21T16:12:02.398Z,23.10
2022-08-21T16:14:32.110Z,23.10
2022-08-21T16:17:00.030Z,23.00
2022-08-21T16:19:30.019Z,22.90
2022-08-21T16:22:17.284Z,22.90
2022-08-21T16:24:46.127Z,22.90
2022-08-21T16:27:15.273Z,22.90
2022-08-21T16:29:47.358Z,22.90
2022-08-21T16:32:16.594Z,22.90
2022-08-21T16:34:48.730Z,22.90
2022-08-21T16:37:24.304Z,22.90
2022-08-21T16:39:53.544Z,22.90
2022-08-21T16:42:26.124Z,23.00
2022-08-21T16:44:55.527Z,23.00
2022-08-21T16:47:26.752Z,23.00
2022-08-21T16:49:57.309Z,23.10
2022-08-21T16:52:25.856Z,23.10
2022-08-21T16:54:53.290Z,23.10
2022-08-21T16:57:20.808Z,23.20
2022-08-21T16:59:48.911Z,23.20
2022-08-21T17:02:33.293Z,23.20
2022-08-21T17:05:02.554Z,23.10
2022-08-21T17:07:34.035Z,23.00
2022-08-21T17:10:17.134Z,23.10
2022-08-21T17:12:58.688Z,23.00
2022-08-21T17:15:36.388Z,23.00
2022-08-21T17:18:09.656Z,22.90
2022-08-21T17:20:37.091Z,22.90
2022-08-21T17:23:05.031Z,22.80
2022-08-21T17:25:35.185Z,22.70
2022-08-21T17:28:04.442Z,22.60
2022-08-21T17:30:31.865Z,22.50
2022-08-21T17:33:01.408Z,22.40
2022-08-21T17:35:29.310Z,22.40
2022-08-21T17:38:02.695Z,22.30
2022-08-21T17:40:31.903Z,22.40
2022-08-21T17:43:06.763Z,22.50
2022-08-21T17:45:37.230Z,22.50
2022-08-21T17:48:05.485Z,22.40
2022-08-21T17:50:34.896Z,22.40
2022-08-21T17:53:02.941Z,22.40
2022-08-21T17:55:31.358Z,22.30
2022-08-21T17:58:00.026Z,22.30
2022-08-21T18:00:28.228Z,22.30
2022-08-21T18:03:15.392Z,22.20
2022-08-21T18:05:46.012Z,22.20
2022-08-21T18:08:14.992Z,22.10
2022-08-21T18:10:47.725Z,22.10
2022-08-21T18:13:24.063Z,22.00
2022-08-21T18:15:56.259Z,21.90
2022-08-21T18:18:28.148Z,21.80
2022-08-21T18:20:59.176Z,21.70
2022-08-21T18:23:43.352Z,21.60
2022-08-21T18:26:16.502Z,21.60
2022-08-21T18:28:44.391Z,21.50
2022-08-21T18:31:13.958Z,21.40
2022-08-21T18:33:55.967Z,21.20
2022-08-21T18:36:29.346Z,21.10
2022-08-21T18:39:19.413Z,21.10
2022-08-21T18:41:48.111Z,21.10
2022-08-21T18:44:19.881Z,21.00
2022-08-21T18:47:26.628Z,20.90
2022-08-21T18:49:54.032Z,20.80
2022-08-21T18:52:21.541Z,20.70
2022-08-21T18:54:49.770Z,20.60
2022-08-21T18:57:19.123Z,20.60
2022-08-21T18:59:49.146Z,20.50
2022-08-21T19:02:21.085Z,20.40
2022-08-21T19:04:48.457Z,20.30
2022-08-21T19:07:19.890Z,20.20
2022-08-21T19:10:21.084Z,20.20
2022-08-21T19:12:39.121Z,20.20
2022-08-21T19:15:10.686Z,20.10
2022-08-21T19:17:38.733Z,20.10
2022-08-21T19:20:36.441Z,20.10
2022-08-21T19:23:06.872Z,20.10
2022-08-21T19:25:36.316Z,20.00
2022-08-21T19:28:10.975Z,20.00
2022-08-21T19:30:45.964Z,20.00
2022-08-21T19:33:26.279Z,20.00
2022-08-21T19:35:58.507Z,19.90
2022-08-21T19:38:26.470Z,19.80
2022-08-21T19:40:55.521Z,19.80
2022-08-21T19:43:24.859Z,19.80
2022-08-21T19:45:58.217Z,19.80
2022-08-21T19:48:27.347Z,19.80
2022-08-21T19:50:54.910Z,19.80
2022-08-21T19:53:22.557Z,19.80
2022-08-21T19:55:51.284Z,19.80
2022-08-21T19:58:36.491Z,19.80
2022-08-21T20:01:12.455Z,19.80
2022-08-21T20:03:52.419Z,19.80
2022-08-21T20:06:24.173Z,19.80
2022-08-21T20:08:58.088Z,19.70
2022-08-21T20:11:38.083Z,19.70
2022-08-21T20:14:10.331Z,19.70
2022-08-21T20:16:38.248Z,19.60
2022-08-21T20:19:09.354Z,19.60
2022-08-21T20:21:44.268Z,19.40
2022-08-21T20:24:14.637Z,19.30
2022-08-21T20:26:49.157Z,19.20
2022-08-21T20:29:24.504Z,19.20
2022-08-21T20:31:58.256Z,19.20
2022-08-21T20:34:26.122Z,19.10
2022-08-21T20:36:54.240Z,19.10
2022-08-21T20:42:10.781Z,19.00
2022-08-21T20:44:46.790Z,19.00
2022-08-21T20:47:25.998Z,18.90
2022-08-21T20:50:02.912Z,18.90
2022-08-21T20:52:37.620Z,18.80
2022-08-21T20:55:14.289Z,18.70
2022-08-21T20:58:19.273Z,18.70
2022-08-21T21:03:46.083Z,18.80
2022-08-21T21:06:28.377Z,18.80
2022-08-21T21:09:10.430Z,18.80
2022-08-21T21:11:58.683Z,18.80
2022-08-21T21:14:52.516Z,18.90
2022-08-21T21:17:44.858Z,18.90
2022-08-21T21:20:27.322Z,18.90
2022-08-21T21:23:09.795Z,18.90
2022-08-21T21:25:54.200Z,19.00
2022-08-21T21:28:41.159Z,18.90
2022-08-21T21:31:11.425Z,18.90
2022-08-21T21:33:40.902Z,18.90
2022-08-21T21:36:56.605Z,18.90
2022-08-21T21:39:46.658Z,18.90
2022-08-21T21:43:01.958Z,18.90
2022-08-21T21:46:01.061Z,18.90
2022-08-21T21:49:13.472Z,18.80
2022-08-21T21:52:22.037Z,18.80
2022-08-21T21:55:23.583Z,18.70
2022-08-21T21:58:24.687Z,18.70
2022-08-21T22:01:06.257Z,18.60
2022-08-21T22:04:06.198Z,18.70
2022-08-21T22:07:15.075Z,18.60
2022-08-21T22:10:06.413Z,18.70
2022-08-21T22:13:01.013Z,18.70
2022-08-21T22:15:38.300Z,18.70
2022-08-21T22:18:16.803Z,18.80
2022-08-21T22:21:03.738Z,18.80
2022-08-21T22:23:38.941Z,18.80
2022-08-21T22:26:13.263Z,18.90
2022-08-21T22:28:47.783Z,18.90
2022-08-21T22:31:18.999Z,19.10
2022-08-21T22:34:24.590Z,19.20
2022-08-21T22:37:02.613Z,19.30
2022-08-21T22:39:39.299Z,19.40
2022-08-21T22:42:24.948Z,19.50
2022-08-21T22:44:59.517Z,19.50
2022-08-21T22:47:39.312Z,19.60
2022-08-21T22:50:32.516Z,19.60
2022-08-21T22:53:07.132Z,19.60
2022-08-21T22:55:54.873Z,19.60
2022-08-21T22:58:51.785Z,19.60
2022-08-21T23:01:21.883Z,19.50
2022-08-21T23:03:54.099Z,19.40
2022-08-21T23:06:46.580Z,19.50
2022-08-21T23:09:56.028Z,19.50
2022-08-21T23:12:34.565Z,19.50
2022-08-21T23:15:12.454Z,19.50
2022-08-21T23:17:53.868Z,19.50
2022-08-21T23:21:03.171Z,19.60
2022-08-21T23:23:43.216Z,19.50
2022-08-21T23:26:33.291Z,19.30
2022-08-21T23:29:44.676Z,19.30
2022-08-21T23:33:19.581Z,19.20
2022-08-21T23:37:07.778Z,19.20
2022-08-21T23:40:19.401Z,19.30
2022-08-21T23:43:04.907Z,19.30
2022-08-21T23:49:20.783Z,19.30
2022-08-21T23:52:01.490Z,19.30
2022-08-21T23:54:49.240Z,19.20
2022-08-21T23:57:42.765Z,19.20
